Time;durP1;ratioP1;P1;durP2;ratioP2;P2;SDS_P1;SDS_P2;PMS_P1;PMS_P2;Temp;Humidity;BMP_temperature;BMP_pressure;BME280_temperature;BME280_humidity;BME280_pressure;Samples;Min_cycle;Max_cycle;Signal;HPM_P1;HPM_P2
2022/12/06 00:01:53;;;;;;;15.50;4.32;;;;;;;3.70;100.00;102137.34;5054511;28;21385;-41
2022/12/06 00:04:18;;;;;;;15.50;3.83;;;;;;;3.75;100.00;102134.38;5055555;28;20059;-38
2022/12/06 00:06:46;;;;;;;9.95;3.95;;;;;;;3.70;100.00;102139.16;5062231;28;20131;-37
2022/12/06 00:09:22;;;;;;;14.43;3.67;;;;;;;3.69;100.00;102135.66;5052411;28;20419;-38
2022/12/06 00:11:48;;;;;;;18.20;5.13;;;;;;;3.65;100.00;102136.81;5056583;28;20462;-40
2022/12/06 00:14:14;;;;;;;9.20;3.35;;;;;;;3.62;100.00;102133.50;5057930;28;20024;-41
2022/12/06 00:16:39;;;;;;;10.55;3.97;;;;;;;3.62;100.00;102133.50;5059809;28;20369;-38
2022/12/06 00:19:05;;;;;;;17.33;4.40;;;;;;;3.60;100.00;102128.28;5057844;28;20029;-39
2022/12/06 00:21:33;;;;;;;14.45;3.63;;;;;;;3.55;100.00;102137.53;5054569;28;20040;-38
2022/12/06 00:24:04;;;;;;;9.93;3.92;;;;;;;3.54;100.00;102127.88;5057286;28;20036;-40
2022/12/06 00:26:30;;;;;;;17.50;4.07;;;;;;;3.50;100.00;102129.88;5061448;28;20068;-39
2022/12/06 00:28:57;;;;;;;11.32;4.10;;;;;;;3.51;100.00;102126.25;5057614;28;20036;-39
2022/12/06 00:31:24;;;;;;;10.88;3.90;;;;;;;3.46;100.00;102121.25;5055998;28;20116;-39
2022/12/06 00:33:50;;;;;;;18.42;4.00;;;;;;;3.42;100.00;102122.44;5064798;28;20107;-39
2022/12/06 00:36:21;;;;;;;18.55;4.28;;;;;;;3.40;100.00;102123.50;5059665;28;20441;-39
2022/12/06 00:38:47;;;;;;;10.68;4.53;;;;;;;3.41;100.00;102122.53;5061971;28;20078;-37
2022/12/06 00:41:21;;;;;;;16.35;4.05;;;;;;;3.44;100.00;102122.31;5040531;28;20025;-37
2022/12/06 00:43:46;;;;;;;13.50;4.20;;;;;;;3.46;100.00;102123.91;5057494;28;20520;-38
2022/12/06 00:46:17;;;;;;;13.15;3.92;;;;;;;3.45;100.00;102118.69;5059485;28;20025;-38
2022/12/06 00:48:44;;;;;;;12.93;4.00;;;;;;;3.55;100.00;102122.41;5056569;28;20029;-38
2022/12/06 00:51:10;;;;;;;15.23;4.10;;;;;;;3.56;100.00;102124.13;5061669;28;20415;-37
2022/12/06 00:53:35;;;;;;;17.13;4.32;;;;;;;3.63;100.00;102129.88;5058087;28;20017;-40
2022/12/06 00:56:01;;;;;;;24.30;3.83;;;;;;;3.62;100.00;102118.38;5058868;28;20032;-40
2022/12/06 00:58:26;;;;;;;17.70;4.00;;;;;;;3.67;100.00;102123.41;5059638;28;20096;-36
2022/12/06 01:00:52;;;;;;;10.60;3.85;;;;;;;3.67;100.00;102124.25;5056665;28;20029;-38
2022/12/06 01:03:17;;;;;;;12.38;3.70;;;;;;;3.79;100.00;102129.69;5056794;28;20495;-38
2022/12/06 01:05:45;;;;;;;18.58;4.18;;;;;;;3.86;100.00;102125.63;5064459;28;20218;-39
2022/12/06 01:08:11;;;;;;;16.73;3.50;;;;;;;3.96;100.00;102121.38;5058154;28;20028;-39
2022/12/06 01:10:37;;;;;;;15.90;4.05;;;;;;;4.05;100.00;102120.72;5054193;28;20024;-37
2022/12/06 01:13:03;;;;;;;12.80;3.25;;;;;;;4.13;100.00;102118.41;5054790;28;20391;-39
2022/12/06 01:15:29;;;;;;;15.05;3.42;;;;;;;4.24;100.00;102122.06;5054831;28;20434;-40
2022/12/06 01:17:54;;;;;;;11.07;3.28;;;;;;;4.32;100.00;102117.09;5058214;28;20148;-40
2022/12/06 01:20:19;;;;;;;11.30;3.05;;;;;;;4.33;100.00;102119.63;5062416;28;20020;-37
2022/12/06 01:22:45;;;;;;;12.85;3.03;;;;;;;4.37;100.00;102122.91;5053991;28;20031;-39
2022/12/06 01:25:10;;;;;;;10.35;3.00;;;;;;;4.48;100.00;102117.69;5065551;28;20079;-37
2022/12/06 01:27:36;;;;;;;6.50;2.83;;;;;;;4.51;100.00;102117.44;5060450;28;20041;-38
2022/12/06 01:30:01;;;;;;;11.43;2.72;;;;;;;4.49;100.00;102121.19;5058536;28;20445;-39
2022/12/06 01:32:28;;;;;;;6.07;2.45;;;;;;;4.50;100.00;102117.53;5057763;28;20468;-36
2022/12/06 01:34:53;;;;;;;7.35;2.47;;;;;;;4.51;100.00;102117.44;5054494;28;20029;-39
2022/12/06 01:37:18;;;;;;;11.00;2.75;;;;;;;4.57;100.00;102106.31;5055634;28;20048;-40
2022/12/06 01:39:44;;;;;;;10.40;2.67;;;;;;;4.52;100.00;102105.81;5052948;28;20027;-39
2022/12/06 01:42:11;;;;;;;13.75;3.25;;;;;;;4.53;100.00;102115.53;5055830;28;20043;-38
2022/12/06 01:44:46;;;;;;;8.32;2.08;;;;;;;4.53;100.00;102112.88;5059022;28;20078;-40
2022/12/06 01:47:23;;;;;;;10.02;2.90;;;;;;;4.47;100.00;102113.28;5057885;28;20025;-38
2022/12/06 01:49:59;;;;;;;11.37;2.23;;;;;;;4.42;100.00;102112.75;5056439;28;20039;-40
2022/12/06 01:52:29;;;;;;;11.10;2.63;;;;;;;4.35;100.00;102111.53;5063764;28;20332;-38
2022/12/06 01:54:55;;;;;;;12.82;2.38;;;;;;;4.39;100.00;102113.00;5052051;28;20020;-40
2022/12/06 01:57:21;;;;;;;6.30;2.22;;;;;;;4.41;100.00;102108.41;5058983;28;20029;-38
2022/12/06 01:59:46;;;;;;;11.30;2.70;;;;;;;4.45;100.00;102107.25;5061726;28;20452;-40
2022/12/06 02:02:12;;;;;;;5.95;2.15;;;;;;;4.43;100.00;102106.50;5056430;28;20064;-39
2022/12/06 02:04:38;;;;;;;6.97;2.50;;;;;;;4.44;100.00;102100.19;5054430;28;20045;-40
2022/12/06 02:07:04;;;;;;;7.97;2.55;;;;;;;4.37;100.00;102106.91;5064108;28;20554;-37
2022/12/06 02:09:30;;;;;;;13.70;3.20;;;;;;;4.35;100.00;102108.84;5060274;28;20030;-39
2022/12/06 02:11:55;;;;;;;10.88;3.00;;;;;;;4.38;100.00;102103.31;5059616;28;20108;-38
2022/12/06 02:14:32;;;;;;;14.05;3.22;;;;;;;4.40;100.00;102098.72;5059145;28;20380;-38
2022/12/06 02:17:08;;;;;;;10.77;2.80;;;;;;;4.40;100.00;102101.38;5055958;28;20033;-39
2022/12/06 02:19:33;;;;;;;13.07;3.90;;;;;;;4.41;100.00;102103.06;5062188;28;20032;-38
2022/12/06 02:22:44;;;;;;;9.48;2.97;;;;;;;4.40;100.00;102101.38;5058040;28;20388;-38
2022/12/06 02:25:15;;;;;;;11.00;3.78;;;;;;;4.41;100.00;102100.41;5087369;28;20035;-38
2022/12/06 02:27:53;;;;;;;9.45;2.78;;;;;;;4.43;100.00;102097.66;5088730;28;20043;-36
2022/12/06 02:30:37;;;;;;;12.70;3.33;;;;;;;4.46;100.00;102098.25;5071255;28;20524;-39
2022/12/06 02:33:06;;;;;;;10.00;3.67;;;;;;;4.44;100.00;102097.53;5059353;28;20079;-38
2022/12/06 02:35:36;;;;;;;11.60;3.05;;;;;;;4.48;100.00;102106.16;5056747;28;20063;-38
2022/12/06 02:38:09;;;;;;;9.45;2.90;;;;;;;4.46;100.00;102100.94;5055161;28;20060;-39
2022/12/06 02:40:44;;;;;;;10.43;2.60;;;;;;;4.48;100.00;102090.16;5059714;28;20047;-39
2022/12/06 02:43:16;;;;;;;13.40;2.88;;;;;;;4.46;100.00;102095.59;5066790;28;20331;-39
2022/12/06 02:45:44;;;;;;;12.48;2.63;;;;;;;4.52;100.00;102094.28;5059543;28;20029;-39
2022/12/06 02:48:11;;;;;;;9.30;2.30;;;;;;;4.56;100.00;102093.97;5056490;28;20089;-37
2022/12/06 02:50:43;;;;;;;17.42;2.20;;;;;;;4.65;100.00;102088.91;5055503;28;20059;-37
2022/12/06 02:53:11;;;;;;;9.73;2.40;;;;;;;4.60;100.00;102084.75;5057051;28;20044;-39
2022/12/06 02:55:37;;;;;;;8.30;2.40;;;;;;;4.72;100.00;102098.19;5053228;28;20031;-38
2022/12/06 02:58:02;;;;;;;12.02;2.35;;;;;;;4.71;100.00;102096.47;5071066;28;20120;-39
2022/12/06 03:00:28;;;;;;;6.95;2.20;;;;;;;4.66;100.00;102099.50;5063893;28;20035;-39
2022/12/06 03:03:11;;;;;;;8.75;2.25;;;;;;;4.73;100.00;102091.88;5071248;28;20526;-37
2022/12/06 03:05:56;;;;;;;7.10;1.98;;;;;;;4.70;100.00;102090.28;5060761;28;20041;-38
2022/12/06 03:08:32;;;;;;;5.20;1.80;;;;;;;4.65;100.00;102078.25;5052151;28;20036;-39
2022/12/06 03:11:00;;;;;;;7.57;1.80;;;;;;;4.65;100.00;102079.09;5055889;28;20373;-38
2022/12/06 03:13:31;;;;;;;7.53;2.17;;;;;;;4.58;100.00;102077.84;5064782;28;20432;-37
2022/12/06 03:16:00;;;;;;;10.50;2.50;;;;;;;4.56;100.00;102075.31;5059238;28;20025;-39
2022/12/06 03:18:49;;;;;;;6.63;1.98;;;;;;;4.56;100.00;102087.78;5069426;28;20060;-39
2022/12/06 03:21:40;;;;;;;6.40;2.47;;;;;;;4.54;100.00;102079.91;5060688;28;20021;-37
2022/12/06 03:24:08;;;;;;;7.57;1.77;;;;;;;4.56;100.00;102080.63;5051735;28;20044;-40
2022/12/06 03:26:35;;;;;;;7.95;1.85;;;;;;;4.50;100.00;102080.22;5062542;28;20072;-40
2022/12/06 03:29:02;;;;;;;8.18;2.30;;;;;;;4.57;100.00;102090.31;5052114;28;20036;-40
2022/12/06 03:31:28;;;;;;;7.00;2.05;;;;;;;4.57;100.00;102095.66;5052008;28;20039;-39
2022/12/06 03:33:58;;;;;;;3.83;1.60;;;;;;;4.58;100.00;102094.72;5050796;28;20029;-40
2022/12/06 03:36:24;;;;;;;3.13;1.80;;;;;;;4.54;100.00;102081.72;5054637;28;20463;-36
2022/12/06 03:38:53;;;;;;;8.65;2.28;;;;;;;4.44;100.00;102089.53;5062959;28;20032;-39
2022/12/06 03:41:21;;;;;;;4.85;1.63;;;;;;;4.33;100.00;102087.63;5067910;28;20100;-39
2022/12/06 03:43:47;;;;;;;4.75;1.73;;;;;;;4.23;100.00;102088.41;5050012;28;20020;-39
2022/12/06 03:46:19;;;;;;;4.25;1.67;;;;;;;4.10;100.00;102091.94;5053406;28;20538;-39
2022/12/06 03:49:00;;;;;;;10.13;2.13;;;;;;;3.99;100.00;102091.00;5070882;28;20103;-39
2022/12/06 03:51:28;;;;;;;5.53;1.80;;;;;;;3.90;100.00;102084.53;5069726;28;20036;-38
2022/12/06 03:53:57;;;;;;;9.45;2.33;;;;;;;3.81;100.00;102079.84;5066666;28;20047;-38
2022/12/06 03:56:23;;;;;;;3.85;1.52;;;;;;;3.73;100.00;102083.88;5058478;28;20093;-40
2022/12/06 03:58:48;;;;;;;4.93;1.63;;;;;;;3.67;100.00;102088.78;5068842;28;20464;-39
2022/12/06 04:01:14;;;;;;;3.13;1.48;;;;;;;3.59;100.00;102086.66;5070424;28;20460;-39
2022/12/06 04:03:39;;;;;;;6.72;1.67;;;;;;;3.50;100.00;102081.94;5069887;28;20063;-39
2022/12/06 04:06:06;;;;;;;5.25;1.85;;;;;;;3.43;100.00;102089.53;5066167;28;20057;-39
2022/12/06 04:08:31;;;;;;;7.80;1.92;;;;;;;3.37;100.00;102086.41;5051877;28;20033;-37
2022/12/06 04:10:57;;;;;;;5.00;1.90;;;;;;;3.31;100.00;102079.69;5050269;28;20430;-39
2022/12/06 04:13:22;;;;;;;3.28;1.60;;;;;;;3.24;100.00;102091.75;5048852;28;20048;-39
2022/12/06 04:15:48;;;;;;;9.48;2.08;;;;;;;3.22;100.00;102086.50;5063424;28;20063;-39
2022/12/06 04:18:17;;;;;;;3.72;1.70;;;;;;;3.22;100.00;102083.84;5060210;28;20495;-39
2022/12/06 04:23:31;;;;;;;7.22;2.10;;;;;;;3.19;100.00;102085.88;5059439;28;20130;-40
2022/12/06 04:25:57;;;;;;;6.85;2.47;;;;;;;3.23;100.00;102082.88;5069286;28;20040;-38
2022/12/06 04:39:20;;;;;;;6.47;1.83;;;;;;;3.44;100.00;102085.03;5070122;28;20047;-40
2022/12/06 04:44:29;;;;;;;4.65;1.65;;;;;;;3.42;100.00;102089.63;5070338;28;20142;-39
2022/12/06 04:46:54;;;;;;;3.67;1.90;;;;;;;3.41;100.00;102085.25;5057034;28;20124;-36
2022/12/06 04:49:19;;;;;;;3.10;1.92;;;;;;;3.44;100.00;102082.38;5057595;28;20040;-37
2022/12/06 04:51:45;;;;;;;3.50;2.15;;;;;;;3.46;100.00;102085.81;5069750;28;20024;-37
2022/12/06 04:54:10;;;;;;;5.10;2.13;;;;;;;3.46;100.00;102089.31;5059488;28;20025;-38
2022/12/06 04:56:35;;;;;;;3.78;1.60;;;;;;;3.48;100.00;102078.56;5051961;28;20108;-39
2022/12/06 04:59:01;;;;;;;2.83;1.83;;;;;;;3.50;100.00;102081.94;5056505;28;20080;-38
2022/12/06 05:01:26;;;;;;;4.78;1.73;;;;;;;3.53;100.00;102081.78;5060148;28;20046;-36
2022/12/06 05:03:51;;;;;;;9.68;2.10;;;;;;;3.56;100.00;102080.72;5069513;28;20017;-39
2022/12/06 05:06:17;;;;;;;5.88;1.98;;;;;;;3.59;100.00;102069.84;5061701;28;20029;-39
2022/12/06 05:08:42;;;;;;;8.05;2.58;;;;;;;3.59;100.00;102068.03;5064345;28;20132;-39
2022/12/06 05:11:07;;;;;;;4.13;2.13;;;;;;;3.56;100.00;102070.91;5061008;28;20052;-38
2022/12/06 05:13:33;;;;;;;8.90;2.08;;;;;;;3.56;100.00;102075.38;5065992;28;20136;-38
2022/12/06 05:16:00;;;;;;;5.00;2.28;;;;;;;3.60;100.00;102067.06;5060942;28;20028;-37
2022/12/06 05:18:27;;;;;;;4.35;2.33;;;;;;;3.61;100.00;102063.44;5051843;28;20040;-39
2022/12/06 05:21:06;;;;;;;10.10;2.80;;;;;;;3.63;100.00;102064.19;5059372;28;20021;-40
2022/12/06 05:23:35;;;;;;;6.25;2.83;;;;;;;3.65;100.00;102064.09;5052015;28;20051;-40
2022/12/06 05:26:10;;;;;;;3.83;2.30;;;;;;;3.66;100.00;102061.31;5064678;28;20041;-40
2022/12/06 05:28:35;;;;;;;7.07;2.42;;;;;;;3.65;100.00;102062.25;5049309;28;20025;-38
2022/12/06 05:31:01;;;;;;;7.50;2.45;;;;;;;3.66;100.00;102069.31;5063794;28;20033;-40
2022/12/06 05:33:27;;;;;;;5.72;2.75;;;;;;;3.68;100.00;102071.84;5057450;28;20472;-40
2022/12/06 05:35:52;;;;;;;7.35;2.88;;;;;;;3.65;100.00;102067.59;5073405;28;20138;-39
2022/12/06 05:38:18;;;;;;;4.55;2.78;;;;;;;3.64;100.00;102073.88;5073377;28;20029;-38
2022/12/06 05:40:44;;;;;;;4.93;2.47;;;;;;;3.64;100.00;102073.88;5054895;28;20043;-40
2022/12/06 05:43:09;;;;;;;7.60;3.03;;;;;;;3.64;100.00;102073.03;5059220;28;20033;-40
2022/12/06 05:45:35;;;;;;;5.25;3.03;;;;;;;3.64;100.00;102071.22;5063217;28;20471;-38
2022/12/06 05:48:01;;;;;;;6.95;2.65;;;;;;;3.65;100.00;102072.91;5060842;28;20032;-40
2022/12/06 05:50:26;;;;;;;5.32;2.80;;;;;;;3.64;100.00;102070.38;5056066;28;20028;-39
2022/12/06 05:52:56;;;;;;;12.18;3.13;;;;;;;3.62;100.00;102074.94;5066486;28;20127;-39
2022/12/06 05:55:21;;;;;;;10.75;4.40;;;;;;;3.60;100.00;102072.38;5064513;28;20463;-39
2022/12/06 05:57:47;;;;;;;12.43;3.25;;;;;;;3.61;100.00;102068.78;5067780;28;20100;-40
2022/12/06 06:00:13;;;;;;;10.13;3.72;;;;;;;3.63;100.00;102066.84;5056266;28;20084;-37
2022/12/06 06:02:39;;;;;;;7.50;3.25;;;;;;;3.64;100.00;102063.22;5054060;28;20028;-38
2022/12/06 06:05:04;;;;;;;6.22;2.95;;;;;;;3.67;100.00;102070.16;5053819;28;20024;-36
2022/12/06 06:07:29;;;;;;;10.02;3.20;;;;;;;3.67;100.00;102072.81;5054404;28;20095;-39
2022/12/06 06:09:55;;;;;;;8.05;3.28;;;;;;;3.66;100.00;102069.31;5051271;28;20056;-39
2022/12/06 06:12:20;;;;;;;7.78;4.05;;;;;;;3.71;100.00;102072.50;5052692;28;20017;-37
2022/12/06 06:14:45;;;;;;;7.80;3.53;;;;;;;3.70;100.00;102076.09;5054310;28;20110;-37
2022/12/06 06:17:12;;;;;;;12.85;3.50;;;;;;;3.77;100.00;102078.38;5063155;28;20115;-39
2022/12/06 06:19:38;;;;;;;15.18;5.40;;;;;;;3.79;100.00;102071.09;5053705;28;20098;-39
2022/12/06 06:22:03;;;;;;;7.32;2.78;;;;;;;3.76;100.00;102077.47;5065653;28;20067;-39
2022/12/06 06:24:35;;;;;;;10.77;3.47;;;;;;;3.73;100.00;102073.22;5068700;28;20081;-39
2022/12/06 06:27:01;;;;;;;10.55;3.65;;;;;;;3.67;100.00;102063.00;5052172;28;20057;-39
2022/12/06 06:29:27;;;;;;;12.43;2.65;;;;;;;3.61;100.00;102067.94;5051588;28;20037;-39
2022/12/06 06:31:52;;;;;;;7.50;2.97;;;;;;;3.49;100.00;102065.13;5051682;28;20040;-38
2022/12/06 06:34:17;;;;;;;11.15;3.70;;;;;;;3.40;100.00;102064.94;5052344;28;20373;-38
2022/12/06 06:36:43;;;;;;;11.95;2.85;;;;;;;3.29;100.00;102058.53;5052045;28;20491;-37
2022/12/06 06:39:08;;;;;;;11.25;3.28;;;;;;;3.21;100.00;102060.88;5052074;28;20056;-39
2022/12/06 06:41:33;;;;;;;8.48;2.70;;;;;;;3.11;100.00;102054.47;5066872;28;20501;-39
2022/12/06 06:43:59;;;;;;;11.27;3.22;;;;;;;3.05;100.00;102057.53;5071130;28;20052;-40
2022/12/06 06:46:24;;;;;;;8.73;2.88;;;;;;;2.97;100.00;102055.38;5070332;28;20106;-38
2022/12/06 06:48:50;;;;;;;11.40;3.33;;;;;;;2.91;100.00;102052.28;5071473;28;20394;-40
2022/12/06 06:51:15;;;;;;;10.02;2.95;;;;;;;2.84;100.00;102051.84;5070558;28;20032;-38
2022/12/06 06:53:40;;;;;;;10.57;3.40;;;;;;;2.80;100.00;102043.22;5070210;28;20056;-41
2022/12/06 06:56:06;;;;;;;9.18;3.42;;;;;;;2.76;100.00;102052.34;5071557;28;20063;-40
2022/12/06 06:58:32;;;;;;;16.17;3.75;;;;;;;2.70;100.00;102043.94;5071879;28;20025;-37
2022/12/06 07:00:59;;;;;;;7.32;3.45;;;;;;;2.64;100.00;102039.88;5070669;28;20089;-40
2022/12/06 07:03:25;;;;;;;10.25;2.92;;;;;;;2.58;100.00;102043.78;5069439;28;20041;-40
2022/12/06 07:05:55;;;;;;;17.45;3.65;;;;;;;2.56;100.00;102043.03;5070826;28;20024;-37
2022/12/06 07:08:21;;;;;;;12.45;3.45;;;;;;;2.50;100.00;102039.91;5071478;28;20463;-40
2022/12/06 07:10:47;;;;;;;11.40;3.40;;;;;;;2.46;100.00;102041.09;5063894;28;20360;-39
2022/12/06 07:13:23;;;;;;;11.68;3.15;;;;;;;2.41;100.00;102044.88;5051127;28;20090;-39
2022/12/06 07:15:49;;;;;;;8.50;3.30;;;;;;;2.38;100.00;102041.56;5061651;28;20059;-40
2022/12/06 07:18:18;;;;;;;15.55;3.38;;;;;;;2.36;100.00;102046.97;5050594;28;20094;-36
2022/12/06 07:20:47;;;;;;;9.27;3.20;;;;;;;2.32;100.00;102040.19;5053590;28;20021;-39
2022/12/06 07:23:13;;;;;;;9.45;3.28;;;;;;;2.29;100.00;102034.19;5050090;28;20033;-39
2022/12/06 07:25:38;;;;;;;11.13;4.05;;;;;;;2.25;100.00;102043.31;5065761;28;20039;-39
2022/12/06 07:28:04;;;;;;;12.60;3.88;;;;;;;2.19;100.00;102047.22;5070671;28;20384;-40
2022/12/06 07:30:29;;;;;;;12.98;3.38;;;;;;;2.15;100.00;102048.34;5069944;28;20108;-38
2022/12/06 07:32:55;;;;;;;7.85;3.30;;;;;;;2.12;100.00;102061.84;5069099;28;20467;-38
2022/12/06 07:35:20;;;;;;;11.13;3.70;;;;;;;2.09;100.00;102048.75;5071017;28;20765;-36
2022/12/06 07:37:46;;;;;;;15.50;4.00;;;;;;;2.06;100.00;102054.28;5071045;28;20044;-38
2022/12/06 07:40:13;;;;;;;13.60;4.15;;;;;;;2.04;100.00;102057.00;5071108;28;20425;-40
2022/12/06 07:45:22;;;;;;;12.70;3.80;;;;;;;2.01;100.00;102053.69;5071206;28;20048;-39
2022/12/06 07:47:48;;;;;;;10.90;4.20;;;;;;;2.03;100.00;102067.72;5070409;28;20028;-45
2022/12/06 07:50:16;;;;;;;8.27;2.90;;;;;;;2.02;100.00;102063.38;5070435;28;20033;-39
2022/12/06 07:52:42;;;;;;;10.82;4.30;;;;;;;2.06;100.00;102075.50;5068850;28;20035;-40
2022/12/06 07:55:08;;;;;;;18.75;4.35;;;;;;;2.07;100.00;102071.91;5070209;28;20029;-37
2022/12/06 07:57:34;;;;;;;14.07;5.03;;;;;;;2.09;100.00;102073.50;5068449;28;20105;-40
2022/12/06 07:59:59;;;;;;;18.33;4.60;;;;;;;2.14;100.00;102074.06;5070286;28;20028;-37
2022/12/06 08:02:26;;;;;;;15.65;4.38;;;;;;;2.20;100.00;102075.47;5068560;28;20480;-40
2022/12/06 08:04:52;;;;;;;16.88;4.78;;;;;;;2.22;100.00;102078.06;5070288;28;20029;-40
2022/12/06 08:07:18;;;;;;;11.82;4.07;;;;;;;2.26;100.00;102076.88;5068947;28;20452;-40
2022/12/06 08:09:43;;;;;;;13.07;5.03;;;;;;;2.41;100.00;102084.72;5070160;28;20021;-38
2022/12/06 08:12:09;;;;;;;18.20;5.03;;;;;;;2.67;100.00;102073.38;5068430;28;20470;-40
2022/12/06 08:14:35;;;;;;;18.65;4.82;;;;;;;3.00;100.00;102072.94;5070101;28;20425;-39
2022/12/06 08:17:01;;;;;;;14.35;5.32;;;;;;;3.57;100.00;102071.75;5051385;28;20120;-37
2022/12/06 08:19:26;;;;;;;18.30;5.10;;;;;;;4.29;100.00;102077.28;5070205;28;20063;-37
2022/12/06 08:21:52;;;;;;;13.98;4.88;;;;;;;5.05;100.00;102069.00;5069495;28;20016;-40
2022/12/06 08:24:17;;;;;;;12.65;3.78;;;;;;;5.75;100.00;102077.03;5070191;28;20035;-36
2022/12/06 08:26:42;;;;;;;14.30;3.42;;;;;;;6.28;100.00;102078.13;5068393;28;20094;-38
2022/12/06 08:29:08;;;;;;;17.13;3.80;;;;;;;6.27;100.00;102070.25;5069728;28;20108;-37
2022/12/06 08:31:33;;;;;;;6.40;3.15;;;;;;;6.14;100.00;102057.03;5068813;28;20519;-37
2022/12/06 08:33:59;;;;;;;10.93;3.40;;;;;;;5.90;100.00;102046.44;5068581;28;20032;-39
2022/12/06 08:36:26;;;;;;;12.00;3.38;;;;;;;5.68;100.00;102045.44;5070288;28;20454;-39
2022/12/06 08:38:52;;;;;;;11.95;3.10;;;;;;;5.44;100.00;102045.53;5070460;28;20079;-39
2022/12/06 08:44:03;;;;;;;9.60;3.60;;;;;;;6.24;100.00;102047.28;5070468;28;20119;-38
2022/12/06 08:46:29;;;;;;;13.13;3.38;;;;;;;6.64;100.00;102044.03;5068279;28;20024;-37
2022/12/06 08:48:55;;;;;;;12.73;3.55;;;;;;;6.96;100.00;102043.16;5070137;28;20123;-37
2022/12/06 08:51:20;;;;;;;11.30;3.30;;;;;;;7.58;100.00;102045.00;5070051;28;20127;-38
2022/12/06 08:53:46;;;;;;;10.90;3.35;;;;;;;8.00;100.00;102044.88;5069698;28;20460;-37
2022/12/06 08:56:11;;;;;;;9.80;3.35;;;;;;;8.19;100.00;102033.38;5068587;28;20052;-38
2022/12/06 08:58:36;;;;;;;12.25;3.95;;;;;;;8.29;100.00;102033.38;5068503;28;20028;-38
2022/12/06 09:01:10;;;;;;;17.33;4.28;;;;;;;8.02;100.00;102032.19;5069523;28;20027;-40
2022/12/06 09:03:35;;;;;;;14.35;3.92;;;;;;;7.99;100.00;102043.19;5055855;28;20036;-37
2022/12/06 09:06:02;;;;;;;10.77;4.00;;;;;;;7.74;100.00;102040.97;5049734;28;20029;-37
2022/12/06 09:08:27;;;;;;;17.80;5.20;;;;;;;7.34;100.00;102036.38;5052383;28;20490;-40
2022/12/06 09:10:52;;;;;;;20.73;5.18;;;;;;;6.96;100.00;102048.53;5053862;28;20029;-37
2022/12/06 09:13:18;;;;;;;20.92;5.18;;;;;;;6.70;100.00;102043.50;5053475;28;20174;-36
2022/12/06 09:15:43;;;;;;;21.15;5.55;;;;;;;6.54;100.00;102048.44;5053719;28;20173;-39
2022/12/06 09:18:08;;;;;;;12.32;4.97;;;;;;;6.41;100.00;102053.94;5053598;28;20025;-39
2022/12/06 09:20:38;;;;;;;17.77;4.95;;;;;;;6.42;100.00;102052.09;5053374;28;20436;-40
2022/12/06 09:23:03;;;;;;;17.33;5.07;;;;;;;6.44;100.00;102047.47;5053369;28;20032;-40
2022/12/06 09:25:29;;;;;;;14.57;4.78;;;;;;;6.36;100.00;102051.63;5053602;28;20248;-39
2022/12/06 09:27:54;;;;;;;12.85;5.20;;;;;;;6.31;100.00;102045.78;5053314;28;20226;-38
2022/12/06 09:30:19;;;;;;;17.88;5.40;;;;;;;6.27;100.00;102051.53;5053434;28;20111;-37
2022/12/06 09:32:47;;;;;;;17.13;5.22;;;;;;;6.25;100.00;102042.78;5053208;28;20043;-38
2022/12/06 09:35:12;;;;;;;13.70;4.75;;;;;;;6.29;100.00;102046.91;5053668;28;20028;-39
2022/12/06 09:37:38;;;;;;;16.75;4.30;;;;;;;6.40;100.00;102051.38;5052748;28;20024;-39
2022/12/06 09:40:11;;;;;;;18.95;4.38;;;;;;;6.52;100.00;102053.91;5053180;28;20120;-40
2022/12/06 09:43:12;;;;;;;15.18;4.10;;;;;;;6.61;100.00;102049.63;5051584;28;20087;-37
2022/12/06 09:46:00;;;;;;;18.33;4.32;;;;;;;6.57;100.00;102053.53;5053050;28;20182;-40
2022/12/06 09:48:32;;;;;;;10.55;3.67;;;;;;;6.52;100.00;102050.38;5053526;28;20045;-38
2022/12/06 09:51:25;;;;;;;17.42;4.40;;;;;;;6.42;100.00;102060.13;5051722;28;20032;-41
2022/12/06 09:54:05;;;;;;;11.98;4.18;;;;;;;6.15;100.00;102061.38;5052769;28;20025;-38
2022/12/06 09:57:06;;;;;;;6.13;3.55;;;;;;;6.09;100.00;102059.22;5053870;28;20021;-38
2022/12/06 09:59:54;;;;;;;23.55;4.50;;;;;;;6.00;100.00;102054.59;5051696;28;20546;-37
2022/12/06 10:02:46;;;;;;;11.93;4.43;;;;;;;6.02;100.00;102052.66;5051264;28;20112;-39
2022/12/06 10:05:19;;;;;;;17.60;4.25;;;;;;;6.13;100.00;102050.84;5052892;28;20040;-37
2022/12/06 10:08:02;;;;;;;14.60;3.95;;;;;;;6.13;100.00;102048.16;5051057;28;20048;-37
2022/12/06 10:10:34;;;;;;;13.60;4.00;;;;;;;6.32;100.00;102044.00;5052669;28;20047;-40
2022/12/06 10:13:12;;;;;;;19.00;4.30;;;;;;;6.44;100.00;102037.63;5050891;28;20036;-40
2022/12/06 10:16:06;;;;;;;9.75;3.70;;;;;;;6.47;100.00;102041.88;5051002;28;20613;-39
2022/12/06 10:18:46;;;;;;;12.55;4.43;;;;;;;6.44;100.00;102036.78;5051842;28;20136;-42
2022/12/06 10:21:28;;;;;;;19.90;4.50;;;;;;;6.44;100.00;102042.13;5052492;28;20035;-39
2022/12/06 10:24:14;;;;;;;13.43;4.20;;;;;;;6.51;100.00;102044.19;5052427;28;20036;-39
2022/12/06 10:26:51;;;;;;;13.85;4.40;;;;;;;6.66;100.00;102036.72;5052438;28;20087;-38
2022/12/06 10:29:25;;;;;;;8.40;3.65;;;;;;;6.59;100.00;102030.19;5052271;28;20037;-37
2022/12/06 10:31:59;;;;;;;12.05;3.67;;;;;;;6.64;100.00;102038.69;5050982;28;20498;-38
2022/12/06 10:34:47;;;;;;;12.35;5.40;;;;;;;6.61;100.00;102044.28;5052173;28;20025;-37
2022/12/06 10:37:16;;;;;;;;;;;;;;;6.73;100.00;102045.91;5053728;28;20533;-39
2022/12/06 10:39:45;;;;;;;11.70;4.88;;;;;;;6.69;100.00;102031.13;5051617;28;20115;-39
2022/12/06 10:42:11;;;;;;;12.88;4.78;;;;;;;6.75;100.00;102016.38;5051957;28;20043;-40
2022/12/06 10:44:49;;;;;;;10.30;4.13;;;;;;;6.84;100.00;102006.72;5052162;28;20060;-38
2022/12/06 10:47:41;;;;;;;13.60;3.90;;;;;;;6.95;100.00;102020.03;5051941;28;20542;-37
2022/12/06 10:50:25;;;;;;;10.95;4.32;;;;;;;7.16;100.00;102012.88;5051967;28;20053;-37
2022/12/06 10:52:54;;;;;;;10.25;4.35;;;;;;;7.54;100.00;102014.09;5050543;28;20109;-39
2022/12/06 10:55:46;;;;;;;8.13;3.40;;;;;;;7.82;100.00;102014.34;5034255;28;20025;-40
2022/12/06 10:58:17;;;;;;;15.05;4.03;;;;;;;8.17;100.00;102010.38;5049326;28;20492;-38
2022/12/06 11:00:56;;;;;;;11.32;3.45;;;;;;;8.71;100.00;102007.19;5051907;28;20082;-39
2022/12/06 11:03:27;;;;;;;7.20;3.22;;;;;;;9.32;100.00;102006.03;5050750;28;20031;-37
2022/12/06 11:06:03;;;;;;;10.18;2.70;;;;;;;9.64;95.66;102007.47;5052298;28;20029;-38
2022/12/06 11:08:33;;;;;;;11.52;2.40;;;;;;;9.80;92.14;101999.63;5051575;28;20037;-39
2022/12/06 11:10:59;;;;;;;10.10;2.78;;;;;;;10.30;92.43;101999.25;5050239;28;20032;-38
2022/12/06 11:13:46;;;;;;;5.95;2.20;;;;;;;10.79;90.30;101995.31;5050310;28;20061;-39
2022/12/06 11:16:16;;;;;;;;;;;;;;;10.51;87.07;101996.25;5050713;28;20028;-37
2022/12/06 11:18:42;;;;;;;7.68;1.95;;;;;;;10.36;88.19;101988.88;5050240;28;19904;-40
2022/12/06 11:21:35;;;;;;;4.18;1.30;;;;;;;10.34;89.18;101989.00;5050239;28;20187;-40
2022/12/06 11:24:15;;;;;;;4.57;1.20;;;;;;;10.46;90.27;101984.25;5051355;28;20032;-39
2022/12/06 11:26:42;;;;;;;5.38;1.42;;;;;;;10.86;90.74;101986.47;5050073;28;20049;-40
2022/12/06 11:29:12;;;;;;;4.03;1.50;;;;;;;11.35;88.21;101978.75;5050051;28;20491;-40
2022/12/06 11:31:56;;;;;;;2.88;0.50;;;;;;;11.80;83.06;101983.03;5051085;28;20086;-37
2022/12/06 11:34:38;;;;;;;3.92;0.90;;;;;;;12.21;81.81;101968.84;5069124;28;20020;-41
2022/12/06 11:37:05;;;;;;;2.63;0.73;;;;;;;12.29;79.00;101974.25;5070955;28;20737;-39
2022/12/06 11:39:31;;;;;;;1.92;0.63;;;;;;;12.39;78.42;101969.56;5070989;28;20052;-40
2022/12/06 11:41:59;;;;;;;3.33;0.90;;;;;;;12.46;78.12;101973.28;5069386;28;20409;-38
2022/12/06 11:44:29;;;;;;;6.25;0.80;;;;;;;12.34;75.91;101971.91;5070644;28;20483;-39
2022/12/06 11:46:59;;;;;;;7.15;0.80;;;;;;;12.20;76.58;101967.16;5069466;28;20411;-40
2022/12/06 11:49:28;;;;;;;4.22;0.75;;;;;;;11.96;77.32;101962.53;5070825;28;20149;-39
2022/12/06 11:51:54;;;;;;;5.90;1.00;;;;;;;11.50;79.73;101968.19;5070496;28;20095;-40
2022/12/06 11:54:38;;;;;;;3.45;0.60;;;;;;;11.09;82.27;101967.97;5069172;28;20029;-40